Terminal Aerodrome Forecast
Issued by NWS

Home | Current Version | Previous Version | Graphics & Text | Print | Product List | Glossary Off
Versions: 1 2 3 4 5 6 7 8 9 10 11 12 13 14

000
FTUS43 KDDC 250520
TAFGCK
TAF
KGCK 250520Z 2506/2606 VRB06KT P6SM SCT250
     FM251200 32012KT P6SM SCT250
     FM251900 36015G25KT P6SM BKN080=

USA.gov is the U.S. government's official web portal to all federal, state and local government web resources and services.